Other Surface Observations
Issued by NWS Great Falls, MT

Home | Current Version | Previous Version | Text Only | Print | Product List | Glossary On
Versions: 1 2 3 4 5 6 7 8 9 10 11 12 13 14 15 16 17 18 19 20 21 22 23 24 25 26 27 28 29 30 31 32 33 34 35 36 37 38 39 40 41 42 43 44 45 46 47 48 49 50
000
SXUS55 KTFX 231044
OSOTFX

AREA AWOS OBSERVATIONS
NATIONAL WEATHER SERVICE GREAT FALLS MT
0344 AM MST Fri Feb 23 2018

METAR K3U3 231043Z AUTO 24004KT M18/M21 A3006
METAR KS71 231043Z AUTO 23000KT 10SM M28/M30 A3019
METAR K38S 231044Z AUTO 23000KT 9SM M16/M18 A3009
METAR K6S5 231044Z AUTO 18000 10SM M08/M11 A3015
METAR K1S3 231043Z AUTO 23003KT M23/M26 A3021
METAR KPWD 231043Z AUTO 10004KT 10SM M22/M24 A3018
METAR KPO1 231043Z AUTO 26003KT  10SM M25/M28 A3026



USA.gov is the U.S. government's official web portal to all federal, state and local government web resources and services.